DAAG/ALG METAR and TAF weather

Enter ICAO airport designator
Station Type Date Time Source
DAAG METAR 2018/07/19 07:30 UTC NOAA

DAAG 190730Z VRB02KT 6000 SCT006 SCT086 25/22 Q1016


Station Type Date Time Source
DAAG Decoded METAR 2018/07/19 07:30 UTC NOAA

Dar-El-Beida, Algeria (DAAG) 36-43N 003-15E 25M
Jul 19, 2018 - 03:30 AM EDT / 2018.07.19 0730 UTC
Wind: Variable at 2 MPH (2 KT):0
Visibility: 3 mile(s):0
Sky conditions: partly cloudy
Temperature: 77 F (25 C)
Dew Point: 71 F (22 C)
Relative Humidity: 83%
Pressure (altimeter): 30.00 in. Hg (1016 hPa)
ob: DAAG 190730Z VRB02KT 6000 SCT006 SCT086 25/22 Q1016
cycle: 7

Station Type Date Time Source
DAAG TAF 2018/07/19 06:33 UTC NOAA

TAF TAF DAAG 190500Z 1906/2006 VRB02KT 9999 FEW023 PROB30
TEMPO 1906/1908 5000 BR
BECMG 1909/1912 02010KT
BECMG 1918/1921 VRB02KT PROB30
TEMPO 2001/2006 5000 BR PROB30
TEMPO 2002/2006 VRB15G25KT -TSRA FEW030CB


Example: see airport list